createdAt,value
2022-12-16T00:01:26.068Z,35.75
2022-12-16T00:03:55.338Z,36.10
2022-12-16T00:06:24.380Z,38.47
2022-12-16T00:08:51.837Z,34.53
2022-12-16T00:11:19.919Z,35.55
2022-12-16T00:13:47.521Z,35.13
2022-12-16T00:16:16.647Z,34.70
2022-12-16T00:18:43.452Z,36.00
2022-12-16T00:21:09.968Z,36.40
2022-12-16T00:23:39.034Z,34.63
2022-12-16T00:26:05.837Z,35.40
2022-12-16T00:28:32.283Z,36.08
2022-12-16T00:30:58.869Z,37.40
2022-12-16T00:33:26.910Z,35.03
2022-12-16T00:35:54.924Z,35.35
2022-12-16T00:38:22.369Z,33.15
2022-12-16T00:40:49.014Z,34.00
2022-12-16T00:43:15.785Z,34.92
2022-12-16T00:45:42.310Z,35.45
2022-12-16T00:48:08.812Z,32.80
2022-12-16T00:50:36.158Z,35.33
2022-12-16T00:53:03.941Z,34.90
2022-12-16T00:55:30.743Z,35.22
2022-12-16T00:57:57.112Z,33.38
2022-12-16T01:00:23.887Z,36.97
2022-12-16T01:02:51.211Z,37.10
2022-12-16T01:05:26.460Z,37.60
2022-12-16T01:07:56.347Z,35.55
2022-12-16T01:10:24.904Z,37.03
2022-12-16T01:12:51.621Z,38.05
2022-12-16T01:15:18.999Z,37.35
2022-12-16T01:17:45.774Z,36.65
2022-12-16T01:20:13.339Z,35.72
2022-12-16T01:22:39.852Z,38.17
2022-12-16T01:25:06.713Z,36.70
2022-12-16T01:27:33.126Z,37.85
2022-12-16T01:29:59.580Z,35.67
2022-12-16T01:32:26.018Z,37.67
2022-12-16T01:34:55.166Z,37.15
2022-12-16T01:37:23.644Z,37.28
2022-12-16T01:39:50.713Z,35.90
2022-12-16T01:42:19.900Z,36.15
2022-12-16T01:44:48.464Z,37.28
2022-12-16T01:47:33.536Z,37.35
2022-12-16T01:50:15.882Z,37.63
2022-12-16T01:52:49.520Z,37.20
2022-12-16T01:55:21.144Z,35.75
2022-12-16T01:57:55.876Z,36.58
2022-12-16T02:00:22.590Z,37.00
2022-12-16T02:02:50.909Z,37.47
2022-12-16T02:05:20.646Z,36.30
2022-12-16T02:07:56.253Z,37.88
2022-12-16T02:10:33.084Z,36.70
2022-12-16T02:13:10.228Z,36.28
2022-12-16T02:15:46.544Z,36.53
2022-12-16T02:18:42.168Z,37.58
2022-12-16T02:21:23.611Z,36.85
2022-12-16T02:24:20.609Z,38.88
2022-12-16T02:27:17.754Z,37.08
2022-12-16T02:29:44.116Z,37.63
2022-12-16T02:32:20.573Z,37.35
2022-12-16T02:35:33.926Z,38.20
2022-12-16T02:38:12.512Z,37.55
2022-12-16T02:40:46.780Z,36.15
2022-12-16T02:43:22.234Z,36.05
2022-12-16T02:45:49.817Z,36.85
2022-12-16T02:48:16.908Z,36.10
2022-12-16T02:50:49.391Z,36.03
2022-12-16T02:53:16.039Z,37.33
2022-12-16T02:55:45.102Z,38.83
2022-12-16T02:58:31.764Z,37.42
2022-12-16T03:01:29.321Z,39.58
2022-12-16T03:04:03.098Z,36.92
2022-12-16T03:06:33.272Z,36.88
2022-12-16T03:11:29.996Z,39.38
2022-12-16T03:13:57.858Z,38.08
2022-12-16T03:16:28.860Z,37.78
2022-12-16T03:18:59.609Z,36.28
2022-12-16T03:21:32.126Z,39.35
2022-12-16T03:24:01.864Z,39.42
2022-12-16T03:26:38.328Z,39.63
2022-12-16T03:29:07.435Z,37.75
2022-12-16T03:31:42.680Z,40.58
2022-12-16T03:34:29.839Z,38.55
2022-12-16T03:37:02.150Z,41.20
2022-12-16T03:39:30.987Z,39.30
2022-12-16T03:41:58.833Z,39.22
2022-12-16T03:44:25.519Z,38.53
2022-12-16T03:46:52.606Z,40.22
2022-12-16T03:49:18.996Z,40.30
2022-12-16T03:51:45.397Z,40.55
2022-12-16T03:54:12.022Z,40.38
2022-12-16T03:56:38.391Z,38.45
2022-12-16T03:59:05.111Z,41.05
2022-12-16T04:01:31.602Z,38.90
2022-12-16T04:03:58.198Z,40.58
2022-12-16T04:06:24.609Z,43.20
2022-12-16T04:08:51.020Z,40.58
2022-12-16T04:11:35.710Z,41.03
2022-12-16T04:14:20.820Z,37.15
2022-12-16T04:17:06.154Z,39.28
2022-12-16T04:19:55.393Z,41.20
2022-12-16T04:22:55.373Z,36.63
2022-12-16T04:25:32.720Z,37.88
2022-12-16T04:27:59.366Z,39.63
2022-12-16T04:30:27.826Z,40.30
2022-12-16T04:33:18.458Z,42.25
2022-12-16T04:36:04.089Z,40.63
2022-12-16T04:38:49.935Z,39.88
2022-12-16T04:41:35.689Z,42.25
2022-12-16T04:44:21.213Z,39.10
2022-12-16T04:47:06.694Z,39.08
2022-12-16T04:49:52.221Z,41.78
2022-12-16T04:52:37.995Z,41.25
2022-12-16T04:55:24.131Z,38.28
2022-12-16T04:58:17.188Z,41.30
2022-12-16T05:01:03.304Z,39.70
2022-12-16T05:03:49.027Z,42.17
2022-12-16T05:06:34.936Z,40.75
2022-12-16T05:09:20.187Z,40.55
2022-12-16T05:12:05.572Z,41.75
2022-12-16T05:14:50.549Z,42.22
2022-12-16T05:17:35.957Z,41.38
2022-12-16T05:20:21.468Z,42.05
2022-12-16T05:23:06.262Z,42.25
2022-12-16T05:25:51.271Z,45.58
2022-12-16T05:28:36.441Z,42.22
2022-12-16T05:31:21.734Z,43.38
2022-12-16T05:34:06.901Z,42.47
2022-12-16T05:36:51.986Z,44.15
2022-12-16T05:39:37.130Z,43.67
2022-12-16T05:42:22.496Z,42.95
2022-12-16T05:45:07.607Z,41.70
2022-12-16T05:47:52.366Z,39.22
2022-12-16T05:50:37.344Z,41.42
2022-12-16T05:53:22.149Z,38.00
2022-12-16T05:56:07.317Z,41.95
2022-12-16T05:58:52.304Z,46.05
2022-12-16T06:01:37.130Z,45.10
2022-12-16T06:04:22.334Z,44.22
2022-12-16T06:07:07.653Z,43.50
2022-12-16T06:10:06.455Z,43.08
2022-12-16T06:12:51.187Z,44.03
2022-12-16T06:15:36.172Z,45.08
2022-12-16T06:18:21.000Z,44.88
2022-12-16T06:21:06.036Z,42.85
2022-12-16T06:23:51.065Z,45.00
2022-12-16T06:26:35.987Z,44.83
2022-12-16T06:29:21.094Z,44.20
2022-12-16T06:32:05.903Z,42.03
2022-12-16T06:34:51.108Z,47.05
2022-12-16T06:37:35.851Z,43.25
2022-12-16T06:40:20.957Z,44.28
2022-12-16T06:43:05.730Z,40.03
2022-12-16T06:45:50.900Z,43.00
2022-12-16T06:48:35.907Z,45.05
2022-12-16T06:51:20.656Z,44.13
2022-12-16T06:54:05.460Z,44.13
2022-12-16T06:56:50.120Z,43.45
2022-12-16T06:59:35.412Z,42.42
2022-12-16T07:02:20.183Z,43.63
2022-12-16T07:05:05.238Z,43.17
2022-12-16T07:07:50.063Z,46.47
2022-12-16T07:10:35.090Z,46.58
2022-12-16T07:13:19.909Z,45.05
2022-12-16T07:16:05.834Z,43.72
2022-12-16T07:18:50.754Z,42.53
2022-12-16T07:21:35.586Z,43.53
2022-12-16T07:24:20.430Z,43.70
2022-12-16T07:27:05.120Z,45.95
2022-12-16T07:29:50.045Z,43.42
2022-12-16T07:32:35.666Z,45.97
2022-12-16T07:35:20.747Z,45.00
2022-12-16T07:38:05.580Z,43.70
2022-12-16T07:40:50.629Z,44.30
2022-12-16T07:43:35.603Z,45.38
2022-12-16T07:46:20.720Z,45.30
2022-12-16T07:49:05.979Z,46.17
2022-12-16T07:51:50.739Z,43.92
2022-12-16T07:54:55.587Z,43.58
2022-12-16T07:57:40.431Z,43.13
2022-12-16T08:00:26.165Z,43.67
2022-12-16T08:03:14.743Z,43.45
2022-12-16T08:05:59.818Z,45.28
2022-12-16T08:08:44.418Z,44.63
2022-12-16T08:11:29.318Z,44.72
2022-12-16T08:14:14.243Z,45.78
2022-12-16T08:16:59.317Z,46.10
2022-12-16T08:19:44.351Z,47.95
2022-12-16T08:22:29.234Z,46.47
2022-12-16T08:25:14.302Z,49.55
2022-12-16T08:27:59.177Z,45.97
2022-12-16T08:30:44.396Z,46.63
2022-12-16T08:33:29.484Z,50.20
2022-12-16T08:36:16.928Z,48.13
2022-12-16T08:39:02.492Z,46.70
2022-12-16T08:41:47.389Z,44.08
2022-12-16T08:44:32.211Z,45.42
2022-12-16T08:47:16.966Z,47.20
2022-12-16T08:50:02.775Z,47.78
2022-12-16T08:52:48.789Z,47.65
2022-12-16T08:55:33.861Z,44.63
2022-12-16T08:58:19.010Z,45.78
2022-12-16T09:01:07.363Z,46.60
2022-12-16T09:03:53.983Z,44.80
2022-12-16T09:06:41.034Z,48.72
2022-12-16T09:09:27.657Z,45.90
2022-12-16T09:12:12.438Z,45.25
2022-12-16T09:14:57.544Z,49.53
2022-12-16T09:17:42.927Z,50.83
2022-12-16T09:20:28.407Z,50.92
2022-12-16T09:23:14.216Z,50.22
2022-12-16T09:25:59.209Z,47.67
2022-12-16T09:28:44.714Z,45.58
2022-12-16T09:31:29.599Z,51.85
2022-12-16T09:34:14.382Z,47.55
2022-12-16T09:36:59.208Z,47.30
2022-12-16T09:39:44.266Z,48.58
2022-12-16T09:42:43.704Z,49.35
2022-12-16T09:45:55.427Z,47.15
2022-12-16T09:48:56.556Z,45.88
2022-12-16T09:51:42.896Z,46.33
2022-12-16T09:54:33.195Z,46.17
2022-12-16T09:57:21.483Z,48.97
2022-12-16T10:00:14.483Z,47.95
2022-12-16T10:03:06.492Z,47.33
2022-12-16T10:06:06.405Z,51.20
2022-12-16T10:09:08.617Z,50.73
2022-12-16T10:12:29.530Z,47.45
2022-12-16T10:15:36.072Z,47.17
2022-12-16T10:18:32.287Z,46.78
2022-12-16T10:21:17.341Z,51.90
2022-12-16T10:24:23.595Z,52.92
2022-12-16T10:27:20.425Z,47.47
2022-12-16T10:30:06.290Z,50.05
2022-12-16T10:33:00.093Z,49.92
2022-12-16T10:35:56.460Z,49.92
2022-12-16T10:38:53.662Z,47.03
2022-12-16T10:41:42.360Z,45.58
2022-12-16T10:44:40.894Z,48.08
2022-12-16T10:47:26.264Z,48.20
2022-12-16T10:50:13.167Z,46.63
2022-12-16T10:53:17.344Z,48.58
2022-12-16T10:56:08.610Z,50.55
2022-12-16T10:59:17.765Z,48.30
2022-12-16T11:02:15.742Z,45.92
2022-12-16T11:05:00.824Z,48.03
2022-12-16T11:07:51.845Z,46.03
2022-12-16T11:11:03.081Z,45.88
2022-12-16T11:16:44.282Z,47.10
2022-12-16T11:19:41.154Z,44.83
2022-12-16T11:22:33.360Z,46.05
2022-12-16T11:25:30.967Z,47.40
2022-12-16T11:28:35.802Z,47.50
2022-12-16T11:31:26.251Z,48.33
2022-12-16T11:34:12.522Z,45.55
2022-12-16T11:37:00.432Z,49.92
2022-12-16T11:39:47.946Z,50.35
2022-12-16T11:42:39.861Z,48.28
2022-12-16T11:45:31.229Z,46.88
2022-12-16T11:48:26.126Z,46.92
2022-12-16T11:51:15.622Z,46.00
2022-12-16T11:54:42.307Z,46.35
2022-12-16T11:57:38.218Z,46.58
2022-12-16T12:00:24.383Z,45.45
2022-12-16T12:03:20.501Z,47.00
2022-12-16T12:06:26.427Z,46.70
2022-12-16T12:09:40.895Z,44.08
2022-12-16T12:12:37.892Z,47.83
2022-12-16T12:15:22.637Z,50.25
2022-12-16T12:18:21.183Z,48.60
2022-12-16T12:21:18.934Z,48.85
2022-12-16T12:24:25.826Z,48.72
2022-12-16T12:27:23.808Z,48.97
2022-12-16T12:30:38.471Z,49.42
2022-12-16T12:33:50.391Z,47.38
2022-12-16T12:37:08.353Z,47.88
2022-12-16T12:40:07.957Z,43.88
2022-12-16T12:43:05.839Z,51.10
2022-12-16T12:46:29.310Z,45.55
2022-12-16T12:49:56.156Z,52.95
2022-12-16T12:53:05.670Z,47.95
2022-12-16T12:56:01.052Z,45.33
2022-12-16T12:58:49.354Z,53.58
2022-12-16T13:01:37.788Z,47.78
2022-12-16T13:04:34.923Z,48.30
2022-12-16T13:07:21.315Z,51.67
2022-12-16T13:10:30.998Z,50.03
2022-12-16T13:13:34.712Z,49.20
2022-12-16T13:16:27.693Z,47.03
2022-12-16T13:19:49.986Z,47.92
2022-12-16T13:22:51.045Z,48.88
2022-12-16T13:25:52.081Z,51.40
2022-12-16T13:28:47.055Z,51.42
2022-12-16T13:31:32.617Z,50.75
2022-12-16T13:34:24.341Z,48.95
2022-12-16T13:37:17.846Z,49.67
2022-12-16T13:40:40.336Z,50.00
2022-12-16T13:44:01.503Z,55.50
2022-12-16T13:47:02.489Z,51.00
2022-12-16T13:50:08.318Z,55.85
2022-12-16T13:53:02.145Z,54.85
2022-12-16T13:56:18.999Z,52.15
2022-12-16T13:59:10.577Z,56.13
2022-12-16T14:02:16.919Z,52.72
2022-12-16T14:05:05.173Z,54.38
2022-12-16T14:07:54.014Z,55.72
2022-12-16T14:10:44.467Z,52.63
2022-12-16T14:13:57.192Z,52.03
2022-12-16T14:17:09.903Z,51.13
2022-12-16T14:20:13.798Z,53.90
2022-12-16T14:23:07.940Z,53.10
2022-12-16T14:25:53.796Z,53.67
2022-12-16T14:28:46.713Z,51.35
2022-12-16T14:31:40.644Z,55.35
2022-12-16T14:34:34.847Z,55.60
2022-12-16T14:37:35.608Z,54.25
2022-12-16T15:51:50.037Z,68.60
2022-12-16T15:54:38.328Z,68.25
2022-12-16T15:57:42.521Z,74.00
2022-12-16T16:00:38.255Z,71.93
2022-12-16T16:03:24.801Z,78.63
2022-12-16T16:06:09.887Z,83.45
2022-12-16T16:08:54.927Z,82.45
2022-12-16T16:11:39.818Z,85.03
2022-12-16T16:14:24.851Z,80.20
2022-12-16T16:17:10.064Z,72.82
2022-12-16T16:19:58.831Z,72.75
2022-12-16T16:22:46.280Z,72.30
2022-12-16T16:25:31.144Z,72.63
2022-12-16T16:28:15.797Z,69.13
2022-12-16T16:31:00.844Z,68.40
2022-12-16T16:33:45.852Z,80.75
2022-12-16T16:36:35.339Z,69.78
2022-12-16T16:39:20.196Z,70.00
2022-12-16T16:42:05.213Z,69.80
2022-12-16T16:44:50.470Z,67.18
2022-12-16T16:47:36.344Z,63.30
2022-12-16T16:50:21.436Z,70.90
2022-12-16T16:53:06.409Z,67.15
2022-12-16T16:55:51.147Z,68.25
2022-12-16T16:58:45.805Z,66.72
2022-12-16T17:01:32.731Z,65.82
2022-12-16T17:04:22.474Z,65.50
2022-12-16T17:07:07.396Z,67.90
2022-12-16T17:09:52.200Z,66.63
2022-12-16T17:12:41.133Z,67.32
2022-12-16T17:15:39.833Z,66.65
2022-12-16T17:18:25.770Z,69.55
2022-12-16T17:21:11.765Z,72.88
2022-12-16T17:23:58.001Z,66.57
2022-12-16T17:26:43.463Z,67.68
2022-12-16T17:29:47.181Z,74.93
2022-12-16T17:32:32.598Z,77.45
2022-12-16T17:35:18.574Z,84.68
2022-12-16T17:38:03.557Z,82.28
2022-12-16T17:40:48.654Z,85.82
2022-12-16T17:43:34.161Z,90.50
2022-12-16T17:46:22.811Z,87.05
2022-12-16T17:49:12.115Z,89.93
2022-12-16T17:51:57.577Z,81.03
2022-12-16T17:54:42.861Z,84.10
2022-12-16T17:57:28.799Z,83.03
2022-12-16T18:00:14.168Z,80.50
2022-12-16T18:02:59.534Z,75.88
2022-12-16T18:05:45.121Z,86.55
2022-12-16T18:08:30.502Z,76.30
2022-12-16T18:11:16.888Z,80.25
2022-12-16T18:14:02.452Z,76.75
2022-12-16T18:16:47.726Z,73.50
2022-12-16T18:19:33.645Z,85.72
2022-12-16T18:22:19.174Z,85.80
2022-12-16T18:25:03.991Z,86.78
2022-12-16T18:27:49.081Z,80.43
2022-12-16T18:30:34.468Z,83.72
2022-12-16T18:33:19.598Z,93.13
2022-12-16T18:36:04.894Z,92.13
2022-12-16T18:38:50.176Z,97.63
2022-12-16T18:41:40.609Z,116.85
2022-12-16T18:44:30.240Z,110.50
2022-12-16T18:47:15.506Z,113.82
2022-12-16T18:50:00.212Z,117.10
2022-12-16T18:52:45.096Z,113.82
2022-12-16T18:55:30.310Z,115.68
2022-12-16T18:58:49.140Z,112.55
2022-12-16T19:01:20.995Z,114.22
2022-12-16T19:04:06.260Z,122.25
2022-12-16T19:06:51.042Z,125.93
2022-12-16T19:09:36.091Z,115.57
2022-12-16T19:12:20.832Z,109.78
2022-12-16T19:15:05.693Z,110.80
2022-12-16T19:17:50.483Z,110.80
2022-12-16T19:20:36.568Z,105.97
2022-12-16T19:23:21.975Z,95.70
2022-12-16T19:26:07.002Z,101.82
2022-12-16T19:28:52.788Z,103.32
2022-12-16T19:31:41.111Z,91.97
2022-12-16T19:34:26.449Z,91.32
2022-12-16T19:37:11.339Z,91.15
2022-12-16T19:39:56.960Z,90.13
2022-12-16T19:42:41.835Z,90.25
2022-12-16T19:45:27.241Z,88.65
2022-12-16T19:48:20.030Z,82.50
2022-12-16T19:51:05.150Z,79.82
2022-12-16T19:53:50.284Z,83.15
2022-12-16T19:56:35.556Z,84.95
2022-12-16T19:59:20.597Z,81.03
2022-12-16T20:02:05.839Z,86.45
2022-12-16T20:04:51.734Z,90.70
2022-12-16T20:07:36.659Z,85.28
2022-12-16T20:10:21.960Z,86.97
2022-12-16T20:13:06.899Z,92.88
2022-12-16T20:15:51.953Z,90.57
2022-12-16T20:18:36.956Z,99.13
2022-12-16T20:21:23.127Z,93.97
2022-12-16T20:24:08.123Z,91.80
2022-12-16T20:26:53.526Z,90.32
2022-12-16T20:29:40.185Z,101.20
2022-12-16T20:32:25.358Z,101.40
2022-12-16T20:35:10.566Z,98.95
2022-12-16T20:37:56.229Z,101.15
2022-12-16T20:40:41.149Z,96.32
2022-12-16T20:43:26.155Z,96.57
2022-12-16T20:46:13.855Z,97.80
2022-12-16T20:48:58.899Z,98.47
2022-12-16T20:51:43.567Z,94.35
2022-12-16T20:54:29.488Z,96.30
2022-12-16T20:57:14.256Z,95.65
2022-12-16T20:59:59.652Z,94.70
2022-12-16T21:02:44.703Z,93.35
2022-12-16T21:05:29.512Z,95.18
2022-12-16T21:08:14.366Z,92.60
2022-12-16T21:10:59.009Z,93.07
2022-12-16T21:13:44.669Z,90.55
2022-12-16T21:16:29.591Z,90.43
2022-12-16T21:19:15.082Z,95.82
2022-12-16T21:21:59.814Z,92.45
2022-12-16T21:24:44.716Z,93.20
2022-12-16T21:27:29.722Z,87.97
2022-12-16T21:30:17.543Z,90.50
2022-12-16T21:33:02.853Z,94.10
2022-12-16T21:35:47.767Z,95.05
2022-12-16T21:38:33.055Z,96.53
2022-12-16T21:41:17.977Z,90.90
2022-12-16T21:44:02.802Z,86.50
2022-12-16T21:46:47.795Z,93.68
2022-12-16T21:49:32.919Z,94.10
2022-12-16T21:52:17.979Z,89.38
2022-12-16T21:55:02.745Z,93.15
2022-12-16T21:57:58.370Z,94.57
2022-12-16T22:00:43.252Z,97.55
2022-12-16T22:03:28.213Z,99.20
2022-12-16T22:06:16.867Z,101.80
2022-12-16T22:09:01.716Z,97.65
2022-12-16T22:11:47.131Z,98.35
2022-12-16T22:14:32.142Z,103.47
2022-12-16T22:17:17.017Z,107.20
2022-12-16T22:20:01.946Z,104.80
2022-12-16T22:22:47.097Z,106.22
2022-12-16T22:25:32.170Z,105.50
2022-12-16T22:28:17.311Z,93.55
2022-12-16T22:31:02.716Z,98.47
2022-12-16T22:33:48.282Z,96.72
2022-12-16T22:36:33.918Z,96.00
2022-12-16T22:39:19.045Z,99.50
2022-12-16T22:42:04.370Z,95.22
2022-12-16T22:44:49.372Z,95.88
2022-12-16T22:47:34.131Z,95.22
2022-12-16T22:50:19.137Z,87.50
2022-12-16T22:53:04.173Z,88.18
2022-12-16T22:55:48.922Z,84.18
2022-12-16T22:58:33.920Z,84.82
2022-12-16T23:01:18.804Z,88.75
2022-12-16T23:04:03.556Z,85.65
2022-12-16T23:06:48.510Z,81.45
2022-12-16T23:09:33.607Z,85.35
2022-12-16T23:12:18.503Z,88.25
2022-12-16T23:15:03.677Z,86.22
2022-12-16T23:17:48.736Z,85.38
2022-12-16T23:20:33.640Z,81.85
2022-12-16T23:23:18.520Z,84.70
2022-12-16T23:26:17.071Z,82.97
2022-12-16T23:29:02.519Z,81.38
2022-12-16T23:31:47.678Z,86.43
2022-12-16T23:34:33.115Z,87.78
2022-12-16T23:37:18.080Z,84.45
2022-12-16T23:40:02.895Z,85.60
2022-12-16T23:42:47.962Z,86.47
2022-12-16T23:45:33.543Z,87.65
2022-12-16T23:48:23.763Z,87.90
2022-12-16T23:51:08.884Z,80.82
2022-12-16T23:53:55.090Z,87.85
2022-12-16T23:56:42.412Z,83.88
2022-12-16T23:59:27.894Z,92.72
